< < Back
Terminal Aerodrome Forecast


Current Version              Previous Versions:   1  2  3  4  5  6  7  8  9  

Terminal Aerodrome Forecast

188
FTUS44 KOHX 310800 AAA
TAFBNA
TAF AMD
KBNA 310800Z 3108/0106 00000KT P6SM SKC
      TEMPO 3110/3112 5SM BR
     FM311300 12005KT P6SM FEW050 SCT120=

Latest METAR

125
SAUS70 KWBC 010400 RRK
MTRBNA
METAR KBNA 010353Z 18003KT 10SM CLR 23/18 A3011 RMK AO2 SLP189
T02280183


USA.gov is the U.S. government's official web portal to all federal, state and local government web resources and services.